Report METAR

 

KSJC - San Jose, California, USA
Distance from station: NE 14km
Dati ricevuti: 17/06/2024 07:53
Sereno
Sereno
 Vento da NNO
Vento: NNO 17 km/h
Temperatura: 17°C
P.to Rugiada: 7°C
Umidità: 52%
Barometro: 1012.5 hPa
Nuvole: Sereno
Visibility: 16 km
2024/06/17 05:53 KSJC 170553Z 34009KT 10SM CLR 17/07 A2990 RMK AO2 SLP124 T01720072 10256 20172 51012
KNUQ - Moffett Nas/Mtn, California, USA
Distance from station: N 14km
Dati ricevuti: 17/06/2024 07:55
Sereno
Sereno
 Vento da N
Vento: N 22 km/h
Temperatura: 17°C
P.to Rugiada: 8°C
Umidità: 56%
Barometro: 1012.5 hPa
Nuvole: Sereno
Visibility: 16 km
2024/06/17 05:55 KNUQ 170555Z AUTO 36012KT 10SM CLR 17/08 A2990 RMK AO2
KPAO - Palo Alto, California, USA
Distance from station: NNO 23km
Dati ricevuti: 17/06/2024 05:47
DATI Obsoleti
Sereno
Sereno
 Vento da ONO
Vento: ONO 24 km/h, Raffica: 37 km/h
Temperatura: 18°C
P.to Rugiada: 7°C
Umidità: 49%
Barometro: 1011.9 hPa
Nuvole: Sereno
Visibility: 16 km
2024/06/17 03:47 KPAO 170347Z 30013G20KT 10SM SKC 18/07 A2988 RMK LAST
 
KRHV - San Jose/Reid, California, USA
Distance from station: ENE 19km
Dati ricevuti: 17/06/2024 06:55
DATI Obsoleti
Sereno
Sereno
 Vento da N
Vento: N 11 km/h
Temperatura: 16°C
P.to Rugiada: 6°C
Umidità: 52%
Barometro: 1012.9 hPa
Nuvole: Sereno
Visibility: 16 km
2024/06/17 04:55 KRHV 170455Z 35006KT 10SM SKC 16/06 A2991 RMK LAST
KOAK - Oakland, California, USA
Distance from station: NNO 50km
Dati ricevuti: 17/06/2024 07:53
Sereno
Sereno
 Vento da ONO
Vento: ONO 28 km/h
Temperatura: 16°C
P.to Rugiada: 8°C
Umidità: 59%
Barometro: 1012.2 hPa
Nuvole: Sereno
Visibility: 16 km
2024/06/17 05:53 KOAK 170553Z 30015KT 10SM CLR 16/08 A2989 RMK AO2 SLP120 T01610078 10222 20161 53009
KSQL - San Carlos Airpo, California, USA
Distance from station: NO 34km
Dati ricevuti: 17/06/2024 08:15
Sereno
Sereno
 Vento da ONO
Vento: ONO 20 km/h, Raffica: 33 km/h
Temperatura: 16°C
P.to Rugiada: 6°C
Umidità: 52%
Barometro: 1012.2 hPa
Nuvole: Sereno
Visibility: 16 km
2024/06/17 06:15 KSQL 170615Z AUTO 30011G18KT 10SM CLR 16/06 A2989 RMK AO2
 
KSFO - San Francisco, California, USA
Distance from station: NO 49km
Dati ricevuti: 17/06/2024 07:56
Sereno
Sereno
 Vento da ONO
Vento: ONO 39 km/h, Raffica: 61 km/h
Temperatura: 13°C
P.to Rugiada: 6°C
Umidità: 63%
Barometro: 1011.9 hPa
Nuvole: Sereno
Visibility: 16 km
2024/06/17 05:56 KSFO 170556Z 29021G33KT 10SM CLR 13/06 A2988 RMK AO2 PK WND 29039/0507 SLP118 T01330056 10189 20133 51009
KE16 - San Martin, California, USA
Distance from station: ESE 43km
Dati ricevuti: 17/06/2024 07:55
Sereno
Sereno
 Vento da NO
Vento: NO 15 km/h
Temperatura: 16°C
P.to Rugiada: 6°C
Umidità: 52%
Barometro: 1012.9 hPa
Nuvole: Sereno
Visibility: 16 km
2024/06/17 05:55 KE16 170555Z AUTO 32008KT 10SM CLR 16/06 A2991 RMK AO2 PWINO PNO
KWVI - Watsonville, California, USA
Distance from station: SSE 44km
Dati ricevuti: 17/06/2024 07:53
Sereno
Sereno
 Vento da E
Vento: E 7 km/h
Temperatura: 13°C
P.to Rugiada: 7°C
Umidità: 67%
Barometro: 1012.5 hPa
Nuvole: Sereno
Visibility: 16 km
2024/06/17 05:53 KWVI 170553Z AUTO 09004KT 10SM CLR 13/07 A2990 RMK AO2 SLP125 T01330072 10217 20133 51013
 
KHAF - Half Moon Bay, California, USA
Distance from station: ONO 50km
Dati ricevuti: 17/06/2024 08:15
Sereno
Sereno
 Vento da N
Vento: N 17 km/h, Raffica: 28 km/h
Temperatura: 11°C
P.to Rugiada: 9°C
Umidità: 88%
Barometro: 1013.5 hPa
Nuvole: Sereno
Visibility: 11 km
2024/06/17 06:15 KHAF 170615Z AUTO 35009G15KT 7SM CLR 11/09 A2993 RMK AO2
KHWD - Hayward, California, USA
Distance from station: N 44km
Dati ricevuti: 17/06/2024 07:54
Sereno
Sereno
 Vento da O
Vento: O 15 km/h
Temperatura: 17°C
P.to Rugiada: 9°C
Umidità: 59%
Barometro: 1012.2 hPa
Nuvole: Sereno
Visibility: 16 km
2024/06/17 05:54 KHWD 170554Z AUTO 28008KT 10SM CLR 17/09 A2989 RMK AO2 SLP129 T01670089 10217 20167 53008
KLVK - Livermore, California, USA
Distance from station: NNE 51km
Dati ricevuti: 17/06/2024 07:53
Sereno
Sereno
 Vento da SSO
Vento: SSO 11 km/h
Temperatura: 17°C
P.to Rugiada: 7°C
Umidità: 52%
Barometro: 1011.2 hPa
Nuvole: Sereno
Visibility: 16 km
2024/06/17 05:53 KLVK 170553Z AUTO 21006KT 10SM CLR 17/07 A2986 RMK AO2 SLP107 60000 T01670072 10272 20167 53007